Time;durP1;ratioP1;P1;durP2;ratioP2;P2;SDS_P1;SDS_P2;PMS_P1;PMS_P2;Temp;Humidity;BMP_temperature;BMP_pressure;BME280_temperature;BME280_humidity;BME280_pressure;Samples;Min_cycle;Max_cycle;Signal;HPM_P1;HPM_P2
2022/07/28 00:00:24;;;;;;;5.72;2.28;;;16.70;88.60;;;;;;5015095;28;20037;-65
2022/07/28 00:02:50;;;;;;;6.72;2.10;;;16.70;87.30;;;;;;5016437;28;20026;-65
2022/07/28 00:05:16;;;;;;;5.90;2.42;;;16.60;86.80;;;;;;5020752;28;20037;-65
2022/07/28 00:07:42;;;;;;;4.90;2.45;;;16.50;88.10;;;;;;5019462;28;20030;-65
2022/07/28 00:10:08;;;;;;;6.07;2.30;;;16.50;87.90;;;;;;5012978;28;20423;-67
2022/07/28 00:12:34;;;;;;;4.65;2.28;;;16.40;88.10;;;;;;5013302;28;20033;-66
2022/07/28 00:14:59;;;;;;;4.22;2.25;;;16.40;88.10;;;;;;5014056;28;20414;-66
2022/07/28 00:17:25;;;;;;;4.57;2.20;;;16.30;88.10;;;;;;5019336;28;20361;-68
2022/07/28 00:19:51;;;;;;;5.72;2.30;;;16.20;87.80;;;;;;5021572;28;20492;-66
2022/07/28 00:22:19;;;;;;;4.07;2.15;;;16.20;87.60;;;;;;5013007;28;20049;-66
2022/07/28 00:24:45;;;;;;;7.15;2.78;;;16.20;87.40;;;;;;5014017;28;20079;-66
2022/07/28 00:27:15;;;;;;;4.55;2.40;;;16.10;88.20;;;;;;5011881;28;20033;-67
2022/07/28 00:29:41;;;;;;;5.25;2.58;;;16.00;89.10;;;;;;5013977;28;20117;-66
2022/07/28 00:32:06;;;;;;;6.78;2.60;;;15.90;89.30;;;;;;5012182;28;20164;-66
2022/07/28 00:34:35;;;;;;;6.68;2.78;;;15.80;90.30;;;;;;5012268;28;20030;-67
2022/07/28 00:37:01;;;;;;;5.07;2.25;;;15.70;90.50;;;;;;5012348;28;20105;-65
2022/07/28 00:39:26;;;;;;;5.75;2.50;;;15.60;90.80;;;;;;5010056;28;20433;-66
2022/07/28 00:41:52;;;;;;;6.03;2.90;;;15.50;91.30;;;;;;5010477;28;20042;-66
2022/07/28 00:44:18;;;;;;;5.25;2.80;;;15.40;91.80;;;;;;5009511;28;20187;-66
2022/07/28 00:46:44;;;;;;;6.97;3.15;;;15.40;91.90;;;;;;5013043;28;20423;-66
2022/07/28 00:49:13;;;;;;;5.38;2.72;;;15.40;92.00;;;;;;5014713;28;20042;-67
2022/07/28 00:51:39;;;;;;;5.75;2.63;;;15.40;92.20;;;;;;5014334;28;20108;-67
2022/07/28 00:54:05;;;;;;;4.85;2.90;;;15.30;92.20;;;;;;5017133;28;20400;-67
2022/07/28 00:56:32;;;;;;;4.45;2.60;;;15.30;92.50;;;;;;5012821;28;20033;-67
2022/07/28 00:58:58;;;;;;;5.93;2.70;;;15.20;92.80;;;;;;5013565;28;20172;-68
2022/07/28 01:01:23;;;;;;;5.65;2.90;;;15.20;92.60;;;;;;5012109;28;20029;-68
2022/07/28 01:03:58;;;;;;;6.30;2.70;;;15.10;93.00;;;;;;5012497;28;20034;-67
2022/07/28 01:06:55;;;;;;;4.72;2.80;;;15.00;93.30;;;;;;5013202;28;20063;-66
2022/07/28 01:09:48;;;;;;;4.95;2.90;;;14.90;93.60;;;;;;5012660;28;20041;-67
2022/07/28 01:12:32;;;;;;;5.72;3.53;;;14.70;93.90;;;;;;5011542;28;20427;-66
2022/07/28 01:15:07;;;;;;;7.00;2.97;;;14.60;94.50;;;;;;5013077;28;20022;-65
2022/07/28 01:17:59;;;;;;;7.07;3.13;;;14.60;94.70;;;;;;5006552;28;20118;-65
2022/07/28 01:20:48;;;;;;;5.15;3.00;;;14.50;94.60;;;;;;5009875;28;20099;-65
2022/07/28 01:23:33;;;;;;;5.43;3.20;;;14.50;94.80;;;;;;5015254;28;20033;-65
2022/07/28 01:26:53;;;;;;;6.22;3.20;;;14.40;95.10;;;;;;5012876;28;20049;-68
2022/07/28 01:29:35;;;;;;;6.18;3.20;;;14.20;95.40;;;;;;4988021;28;20105;-67
2022/07/28 01:32:04;;;;;;;5.75;3.58;;;14.10;95.60;;;;;;5016189;28;20041;-67
2022/07/28 01:34:35;;;;;;;6.32;3.55;;;14.00;95.80;;;;;;5016339;28;20029;-67
2022/07/28 01:37:12;;;;;;;6.72;3.55;;;13.90;96.10;;;;;;5014848;28;20452;-65
2022/07/28 01:39:41;;;;;;;5.82;3.33;;;13.70;96.00;;;;;;5015907;28;20213;-65
2022/07/28 01:42:11;;;;;;;6.88;3.40;;;13.70;96.30;;;;;;5016855;28;20025;-66
2022/07/28 01:44:41;;;;;;;7.05;3.67;;;13.70;96.30;;;;;;5018035;28;20104;-67
2022/07/28 01:47:12;;;;;;;5.80;3.33;;;13.70;96.40;;;;;;5016877;28;20045;-65
2022/07/28 01:49:38;;;;;;;5.35;3.58;;;13.60;96.40;;;;;;5012359;28;20029;-67
2022/07/28 01:52:07;;;;;;;5.93;3.78;;;13.60;96.50;;;;;;5014652;28;20040;-66
2022/07/28 01:54:36;;;;;;;7.03;3.85;;;13.60;96.40;;;;;;5013933;28;20049;-66
2022/07/28 01:57:02;;;;;;;8.90;3.58;;;13.50;96.40;;;;;;5013970;28;20034;-66
2022/07/28 01:59:29;;;;;;;5.50;3.33;;;13.50;96.40;;;;;;5016352;28;20030;-66
2022/07/28 02:01:57;;;;;;;8.90;3.70;;;13.50;96.40;;;;;;5019134;28;20057;-66
2022/07/28 02:04:25;;;;;;;6.47;3.60;;;13.60;96.20;;;;;;5026800;28;20071;-66
2022/07/28 02:06:52;;;;;;;7.68;3.90;;;13.50;96.00;;;;;;5014870;28;21951;-67
2022/07/28 02:09:20;;;;;;;6.32;4.00;;;13.50;96.40;;;;;;5015652;28;20036;-66
2022/07/28 02:11:48;;;;;;;6.60;3.90;;;13.30;96.60;;;;;;5015940;28;20018;-66
2022/07/28 02:14:17;;;;;;;7.25;3.75;;;13.20;96.70;;;;;;5031590;28;20022;-67
2022/07/28 02:16:57;;;;;;;5.82;3.75;;;13.10;96.80;;;;;;5022823;28;20109;-66
2022/07/28 02:19:25;;;;;;;9.85;4.35;;;13.00;97.00;;;;;;5019521;28;20038;-67
2022/07/28 02:21:52;;;;;;;7.22;4.03;;;13.00;97.10;;;;;;5012830;28;20080;-67
2022/07/28 02:24:21;;;;;;;8.63;4.50;;;12.90;97.10;;;;;;5016858;28;20077;-67
2022/07/28 02:26:56;;;;;;;7.82;3.88;;;12.80;97.10;;;;;;5014333;28;20056;-66
2022/07/28 02:29:23;;;;;;;8.38;4.78;;;12.80;97.20;;;;;;5017427;28;20113;-66
2022/07/28 02:31:54;;;;;;;7.45;4.97;;;12.80;97.20;;;;;;5018553;28;20037;-67
2022/07/28 02:34:25;;;;;;;7.43;4.65;;;12.80;97.20;;;;;;5017406;28;20059;-67
2022/07/28 02:36:58;;;;;;;8.20;4.32;;;12.70;97.20;;;;;;5020649;28;20514;-67
2022/07/28 02:39:45;;;;;;;7.03;4.38;;;12.70;97.20;;;;;;5009709;28;20034;-67
2022/07/28 02:42:19;;;;;;;8.20;4.85;;;12.60;97.20;;;;;;5026160;28;20033;-66
2022/07/28 02:45:07;;;;;;;9.57;4.68;;;12.60;97.40;;;;;;5016185;28;20157;-66
2022/07/28 02:47:39;;;;;;;9.55;4.80;;;12.40;97.10;;;;;;5020497;28;20034;-66
2022/07/28 02:50:06;;;;;;;7.45;5.22;;;12.40;97.10;;;;;;5020147;28;20101;-66
2022/07/28 02:52:33;;;;;;;9.88;4.65;;;12.50;97.30;;;;;;5010922;28;20129;-66
2022/07/28 02:55:01;;;;;;;7.63;5.00;;;12.60;97.40;;;;;;5017364;28;20105;-67
2022/07/28 02:57:28;;;;;;;9.38;5.10;;;12.50;97.30;;;;;;5013095;28;20030;-66
2022/07/28 02:59:57;;;;;;;9.30;5.43;;;12.60;97.30;;;;;;5016014;28;20044;-66
2022/07/28 03:02:23;;;;;;;6.47;4.78;;;12.60;97.40;;;;;;5021925;28;20060;-66
2022/07/28 03:05:00;;;;;;;10.75;5.50;;;12.50;97.30;;;;;;5019981;28;20092;-67
2022/07/28 03:07:30;;;;;;;6.97;5.20;;;12.60;97.40;;;;;;5023959;28;20415;-66
2022/07/28 03:10:00;;;;;;;7.93;4.90;;;12.60;97.50;;;;;;5012614;28;20033;-66
2022/07/28 03:12:26;;;;;;;10.23;5.40;;;12.50;97.30;;;;;;5013040;28;20037;-66
2022/07/28 03:14:53;;;;;;;9.23;5.25;;;12.50;97.40;;;;;;5013447;28;20060;-66
2022/07/28 03:17:19;;;;;;;7.50;4.70;;;12.40;97.10;;;;;;5021713;28;20029;-65
2022/07/28 03:19:45;;;;;;;7.75;5.80;;;12.30;97.10;;;;;;5012589;28;20095;-66
2022/07/28 03:22:11;;;;;;;8.15;5.22;;;12.30;96.90;;;;;;5014229;28;20034;-66
2022/07/28 03:24:44;;;;;;;6.68;5.10;;;12.30;97.00;;;;;;5013399;28;20036;-66
2022/07/28 03:27:24;;;;;;;7.78;5.70;;;12.30;97.00;;;;;;5011407;28;20434;-64
2022/07/28 03:29:55;;;;;;;7.97;5.30;;;12.20;96.70;;;;;;5015731;28;20025;-65
2022/07/28 03:32:25;;;;;;;8.77;5.60;;;12.20;96.80;;;;;;5028672;28;20100;-66
2022/07/28 03:34:51;;;;;;;7.03;5.45;;;12.20;96.90;;;;;;5019342;28;20022;-67
2022/07/28 03:37:32;;;;;;;10.30;6.07;;;12.10;96.70;;;;;;5015541;28;20327;-66
2022/07/28 03:39:59;;;;;;;8.95;5.50;;;12.20;96.70;;;;;;5010191;28;20026;-66
2022/07/28 03:42:27;;;;;;;7.95;5.30;;;12.20;96.90;;;;;;5025521;28;20062;-65
2022/07/28 03:44:53;;;;;;;8.45;5.45;;;12.20;96.60;;;;;;5019775;28;20096;-65
2022/07/28 03:47:23;;;;;;;8.00;5.57;;;12.30;97.00;;;;;;5020754;28;20026;-65
2022/07/28 03:49:49;;;;;;;7.53;5.35;;;12.20;96.80;;;;;;5013064;28;20042;-65
2022/07/28 03:52:15;;;;;;;7.13;5.10;;;12.20;96.90;;;;;;5025560;28;20048;-66
2022/07/28 03:54:41;;;;;;;7.65;5.03;;;12.10;96.80;;;;;;5014763;28;20033;-65
2022/07/28 03:57:06;;;;;;;8.68;5.78;;;12.10;96.50;;;;;;5016143;28;20040;-65
2022/07/28 03:59:32;;;;;;;6.82;5.43;;;12.20;96.50;;;;;;5018293;28;20032;-66
2022/07/28 04:01:58;;;;;;;8.77;5.70;;;12.30;97.10;;;;;;5018839;28;20304;-66
2022/07/28 04:04:23;;;;;;;8.23;5.72;;;12.40;97.10;;;;;;5016573;28;20041;-66
2022/07/28 04:06:49;;;;;;;7.35;5.30;;;12.30;97.20;;;;;;5014264;28;20411;-65
2022/07/28 04:09:15;;;;;;;8.70;6.57;;;12.20;96.90;;;;;;5011158;28;20455;-65
2022/07/28 04:11:42;;;;;;;9.23;5.80;;;12.00;96.70;;;;;;5015343;28;21444;-66
2022/07/28 04:14:11;;;;;;;8.20;5.90;;;12.00;96.40;;;;;;5015086;28;20029;-64
2022/07/28 04:16:36;;;;;;;8.50;6.00;;;12.00;96.10;;;;;;5010869;28;20068;-65
2022/07/28 04:19:02;;;;;;;7.25;5.70;;;12.00;96.10;;;;;;5016100;28;20151;-67
2022/07/28 04:21:27;;;;;;;9.57;6.82;;;12.10;96.00;;;;;;5014309;28;20025;-67
2022/07/28 04:23:53;;;;;;;10.60;6.68;;;12.10;96.30;;;;;;5013897;28;20163;-67
2022/07/28 04:26:22;;;;;;;11.00;6.43;;;12.20;96.50;;;;;;5011753;28;20497;-66
2022/07/28 04:28:47;;;;;;;11.23;6.28;;;12.30;96.60;;;;;;5015032;28;20443;-66
2022/07/28 04:31:13;;;;;;;8.73;6.38;;;12.20;96.60;;;;;;5011463;28;20057;-66
2022/07/28 04:33:39;;;;;;;10.40;6.93;;;12.20;96.40;;;;;;5014859;28;20026;-66
2022/07/28 04:36:05;;;;;;;99.55;22.45;;;12.30;96.50;;;;;;5018329;28;20029;-66
2022/07/28 04:38:30;;;;;;;44.92;23.20;;;12.30;96.40;;;;;;5012242;28;20029;-67
2022/07/28 04:40:56;;;;;;;9.40;6.15;;;12.40;96.50;;;;;;5012250;28;20084;-66
2022/07/28 04:43:22;;;;;;;9.43;6.50;;;12.50;96.70;;;;;;5017399;28;20453;-66
2022/07/28 04:45:49;;;;;;;9.75;6.78;;;12.50;96.70;;;;;;5014001;28;20082;-66
2022/07/28 04:48:15;;;;;;;11.57;7.13;;;12.50;96.80;;;;;;5015390;28;20041;-66
2022/07/28 04:50:43;;;;;;;12.32;7.32;;;12.60;96.70;;;;;;5017034;28;20017;-67
2022/07/28 04:53:09;;;;;;;8.98;6.38;;;12.60;96.70;;;;;;5015173;28;20054;-65
2022/07/28 04:55:37;;;;;;;9.50;7.05;;;12.60;96.60;;;;;;5014251;28;20116;-65
2022/07/28 04:58:03;;;;;;;9.30;6.20;;;12.70;96.80;;;;;;5011374;28;20029;-66
2022/07/28 05:00:29;;;;;;;8.50;6.57;;;12.70;96.70;;;;;;5019638;28;20331;-67
2022/07/28 05:02:57;;;;;;;11.23;6.95;;;12.80;97.00;;;;;;5015352;28;20044;-66
2022/07/28 05:05:23;;;;;;;10.00;6.72;;;12.80;96.90;;;;;;5017132;28;20057;-67
2022/07/28 05:07:48;;;;;;;9.07;6.97;;;12.90;97.10;;;;;;5011022;28;20668;-66
2022/07/28 05:10:14;;;;;;;8.35;6.88;;;12.90;97.20;;;;;;5015264;28;20018;-66
2022/07/28 05:12:40;;;;;;;8.63;6.35;;;13.00;97.10;;;;;;5008652;28;20034;-66
2022/07/28 05:15:07;;;;;;;10.80;7.22;;;13.10;97.10;;;;;;5014116;28;20039;-66
2022/07/28 05:17:33;;;;;;;8.82;6.00;;;13.10;97.20;;;;;;5013667;28;20030;-66
2022/07/28 05:19:59;;;;;;;179.90;18.88;;;13.20;97.20;;;;;;5009519;28;20466;-66
2022/07/28 05:22:24;;;;;;;8.05;5.78;;;13.30;97.40;;;;;;5012326;28;20033;-66
2022/07/28 05:24:50;;;;;;;148.52;42.55;;;13.40;97.50;;;;;;5011467;28;20032;-66
2022/07/28 05:27:16;;;;;;;10.05;7.97;;;13.40;97.60;;;;;;5013492;28;20125;-66
2022/07/28 05:29:41;;;;;;;211.05;43.40;;;13.50;97.60;;;;;;5011685;28;20048;-67
2022/07/28 05:32:07;;;;;;;9.32;6.90;;;13.60;97.60;;;;;;5021896;28;20108;-66
2022/07/28 05:34:34;;;;;;;8.75;6.43;;;13.80;98.00;;;;;;5011417;28;20022;-66
2022/07/28 05:37:01;;;;;;;40.97;8.50;;;14.00;97.70;;;;;;5009396;28;20387;-66
2022/07/28 05:39:27;;;;;;;5.03;3.10;;;14.10;97.80;;;;;;5013486;28;20041;-66
2022/07/28 05:41:53;;;;;;;7.60;4.72;;;14.30;97.90;;;;;;5009846;28;20029;-67
2022/07/28 05:44:19;;;;;;;10.70;3.90;;;14.60;97.20;;;;;;5013590;28;20068;-66
2022/07/28 05:46:44;;;;;;;163.02;125.57;;;14.80;96.80;;;;;;5012103;28;20033;-66
2022/07/28 05:49:10;;;;;;;7.75;6.65;;;15.00;96.40;;;;;;5011381;28;20076;-66
2022/07/28 05:51:36;;;;;;;8.48;5.30;;;15.20;96.00;;;;;;5016377;28;20022;-66
2022/07/28 05:54:04;;;;;;;7.90;5.35;;;15.30;95.30;;;;;;5020713;28;20022;-66
2022/07/28 05:56:30;;;;;;;8.90;5.20;;;15.40;94.70;;;;;;5011735;28;20147;-66
2022/07/28 05:58:56;;;;;;;7.72;4.90;;;15.50;94.10;;;;;;5012036;28;20113;-66
2022/07/28 06:01:21;;;;;;;8.88;4.80;;;15.60;93.90;;;;;;5014977;28;20104;-66
2022/07/28 06:03:51;;;;;;;7.38;5.13;;;15.80;93.50;;;;;;5010378;28;20034;-67
2022/07/28 06:06:17;;;;;;;7.63;4.93;;;16.00;93.20;;;;;;5013721;28;20076;-66
2022/07/28 06:08:44;;;;;;;8.52;4.55;;;16.10;93.10;;;;;;5012419;28;20427;-66
2022/07/28 06:11:12;;;;;;;79.20;18.13;;;16.20;93.10;;;;;;5008413;28;20419;-66
2022/07/28 06:13:40;;;;;;;8.02;5.13;;;16.30;92.40;;;;;;5013082;28;20025;-67
2022/07/28 06:16:06;;;;;;;11.77;6.22;;;16.50;92.30;;;;;;5010277;28;20427;-66
2022/07/28 06:18:32;;;;;;;11.13;5.18;;;16.70;92.40;;;;;;5015752;28;20072;-66
2022/07/28 06:20:58;;;;;;;8.85;4.88;;;16.70;91.80;;;;;;5017046;28;20048;-66
2022/07/28 06:23:24;;;;;;;8.45;4.82;;;16.70;92.10;;;;;;5016568;28;20406;-67
2022/07/28 06:25:53;;;;;;;7.88;4.45;;;16.70;91.50;;;;;;5015858;28;20300;-66
2022/07/28 06:28:19;;;;;;;6.80;4.15;;;16.70;91.00;;;;;;5012041;28;20037;-66
2022/07/28 06:30:48;;;;;;;10.00;4.25;;;16.80;90.70;;;;;;5015909;28;20078;-65
2022/07/28 06:33:15;;;;;;;8.93;4.10;;;16.80;90.50;;;;;;5017087;28;20033;-66
2022/07/28 06:35:41;;;;;;;8.52;4.15;;;16.80;90.50;;;;;;5015484;28;20133;-66
2022/07/28 06:38:08;;;;;;;8.05;3.95;;;16.80;90.50;;;;;;5015005;28;20030;-65
2022/07/28 06:40:33;;;;;;;7.80;4.30;;;16.80;90.50;;;;;;5016349;28;20033;-66
2022/07/28 06:42:59;;;;;;;10.82;4.55;;;16.90;90.70;;;;;;5017663;28;20037;-65
2022/07/28 06:45:25;;;;;;;6.13;4.05;;;17.10;90.50;;;;;;5014910;28;20049;-66
2022/07/28 06:47:53;;;;;;;11.32;4.15;;;17.20;89.80;;;;;;5016947;28;20033;-65
2022/07/28 06:50:20;;;;;;;8.82;3.97;;;17.30;90.00;;;;;;5014002;28;20327;-66
2022/07/28 06:52:46;;;;;;;112.50;8.60;;;17.90;88.40;;;;;;5016165;28;20057;-66
2022/07/28 06:55:14;;;;;;;9.30;4.07;;;18.40;87.10;;;;;;5013827;28;20394;-66
2022/07/28 06:57:40;;;;;;;7.65;4.22;;;18.80;85.60;;;;;;5015066;28;20152;-65
2022/07/28 07:00:07;;;;;;;7.68;3.95;;;19.30;85.00;;;;;;5017608;28;20447;-66
2022/07/28 07:02:40;;;;;;;8.15;3.28;;;19.70;83.60;;;;;;5016883;28;20042;-65
2022/07/28 07:05:10;;;;;;;15.98;4.75;;;20.10;82.10;;;;;;5014960;28;20037;-64
2022/07/28 07:07:36;;;;;;;8.93;4.20;;;20.20;81.80;;;;;;5017212;28;20026;-65
2022/07/28 07:10:03;;;;;;;10.07;3.95;;;19.60;83.20;;;;;;5017040;28;20081;-65
2022/07/28 07:12:33;;;;;;;7.75;4.00;;;19.20;84.50;;;;;;5025225;28;20018;-67
2022/07/28 07:14:58;;;;;;;10.20;3.97;;;19.00;85.40;;;;;;5015965;28;20041;-66
2022/07/28 07:17:24;;;;;;;9.27;4.20;;;19.00;85.70;;;;;;5016455;28;20026;-66
2022/07/28 07:19:50;;;;;;;11.25;4.18;;;19.10;85.40;;;;;;5016495;28;20108;-66
2022/07/28 07:22:17;;;;;;;10.55;4.30;;;19.10;85.40;;;;;;5017254;28;20077;-67
2022/07/28 07:24:43;;;;;;;9.82;4.55;;;19.20;85.20;;;;;;5015868;28;20038;-66
2022/07/28 07:27:09;;;;;;;10.35;4.50;;;19.20;85.20;;;;;;5013185;28;20069;-66
2022/07/28 07:29:34;;;;;;;10.15;4.25;;;19.10;85.40;;;;;;5016608;28;20042;-66
2022/07/28 07:32:00;;;;;;;8.60;4.47;;;19.30;85.80;;;;;;5016387;28;20030;-66
2022/07/28 07:34:26;;;;;;;10.02;5.13;;;19.50;85.40;;;;;;5013824;28;20116;-66
2022/07/28 07:36:54;;;;;;;9.73;4.88;;;19.50;84.90;;;;;;5016773;28;20041;-66
2022/07/28 07:39:19;;;;;;;12.52;4.72;;;19.50;85.20;;;;;;5013012;28;20041;-65
2022/07/28 07:41:45;;;;;;;8.75;4.97;;;19.70;85.20;;;;;;5014344;28;20026;-66
2022/07/28 07:44:11;;;;;;;7.85;4.50;;;20.30;83.90;;;;;;5015331;28;20354;-66
2022/07/28 07:46:37;;;;;;;9.05;4.43;;;20.90;82.00;;;;;;5013821;28;20434;-66
2022/07/28 07:49:03;;;;;;;8.52;4.30;;;21.50;80.50;;;;;;5013710;28;20030;-66
2022/07/28 07:51:28;;;;;;;11.52;4.13;;;21.60;79.30;;;;;;5008080;28;20492;-66
2022/07/28 07:53:54;;;;;;;8.82;3.70;;;22.10;78.40;;;;;;5011682;28;20033;-66
2022/07/28 07:56:19;;;;;;;12.15;4.15;;;23.00;76.40;;;;;;5010582;28;20296;-67
2022/07/28 07:58:45;;;;;;;10.10;4.47;;;23.30;74.60;;;;;;5014380;28;20049;-66
2022/07/28 08:01:11;;;;;;;9.57;3.92;;;23.40;74.70;;;;;;5013274;28;20026;-65
2022/07/28 08:03:38;;;;;;;7.55;4.10;;;23.90;73.30;;;;;;5013846;28;20022;-66
2022/07/28 08:06:04;;;;;;;6.45;3.53;;;24.00;72.60;;;;;;5014739;28;20033;-65
2022/07/28 08:08:29;;;;;;;8.60;4.10;;;24.40;72.30;;;;;;5009025;28;20033;-66
2022/07/28 08:10:55;;;;;;;6.90;3.78;;;24.70;71.80;;;;;;5013541;28;20101;-66
2022/07/28 08:13:22;;;;;;;8.25;3.53;;;25.00;70.90;;;;;;5014526;28;20326;-66
2022/07/28 08:15:48;;;;;;;6.50;3.67;;;25.40;69.80;;;;;;5012308;28;20022;-66
2022/07/28 08:18:14;;;;;;;12.82;4.00;;;25.60;69.70;;;;;;5013236;28;20124;-66
2022/07/28 08:20:40;;;;;;;11.75;4.55;;;25.90;68.50;;;;;;5016165;28;20121;-66
2022/07/28 08:23:06;;;;;;;9.32;4.30;;;26.30;68.20;;;;;;5011977;28;20030;-66
2022/07/28 08:25:36;;;;;;;7.30;3.75;;;26.40;67.30;;;;;;5012294;28;20052;-66
2022/07/28 08:28:02;;;;;;;7.97;3.83;;;26.40;67.80;;;;;;5013334;28;20030;-66
2022/07/28 08:30:27;;;;;;;7.88;4.05;;;26.60;67.50;;;;;;5012679;28;20480;-66
2022/07/28 08:32:53;;;;;;;9.77;4.25;;;26.70;66.70;;;;;;5015544;28;20048;-67
2022/07/28 08:35:18;;;;;;;8.45;4.30;;;27.00;66.90;;;;;;5012164;28;20029;-66
2022/07/28 08:37:44;;;;;;;10.15;4.60;;;27.10;66.30;;;;;;5013384;28;20029;-66
2022/07/28 08:40:13;;;;;;;8.57;4.38;;;26.50;67.00;;;;;;5013812;28;20415;-66
2022/07/28 08:42:57;;;;;;;6.88;4.10;;;25.60;69.30;;;;;;5013603;28;20072;-66
2022/07/28 08:45:25;;;;;;;9.27;4.20;;;25.30;70.60;;;;;;5013336;28;20045;-66
2022/07/28 08:47:55;;;;;;;8.35;4.13;;;26.10;69.10;;;;;;5014473;28;20029;-66
2022/07/28 08:50:23;;;;;;;9.73;3.92;;;27.10;67.40;;;;;;5008482;28;20477;-66
2022/07/28 08:52:50;;;;;;;9.10;3.85;;;27.60;66.00;;;;;;5014051;28;20099;-66
2022/07/28 08:55:23;;;;;;;8.73;3.95;;;28.20;65.40;;;;;;5014831;28;20068;-66
2022/07/28 08:57:50;;;;;;;8.18;3.97;;;28.10;63.90;;;;;;5005513;28;20051;-66
2022/07/28 09:00:15;;;;;;;6.55;3.60;;;27.50;66.20;;;;;;5013551;28;20061;-67
2022/07/28 09:02:44;;;;;;;10.95;4.50;;;27.30;66.30;;;;;;5013609;28;20123;-66
2022/07/28 09:05:10;;;;;;;8.27;4.30;;;27.70;65.50;;;;;;5014574;28;20045;-66
2022/07/28 09:07:37;;;;;;;8.02;3.83;;;27.20;66.50;;;;;;5013313;28;20112;-65
2022/07/28 09:10:08;;;;;;;6.28;3.50;;;27.70;66.10;;;;;;5012060;28;20026;-66
2022/07/28 09:12:41;;;;;;;7.88;3.65;;;28.50;64.40;;;;;;5011687;28;20026;-66
2022/07/28 09:15:08;;;;;;;5.95;3.35;;;29.40;61.80;;;;;;5014206;28;20318;-66
2022/07/28 09:17:35;;;;;;;8.88;3.60;;;29.10;61.50;;;;;;5012288;28;20339;-66
2022/07/28 09:20:03;;;;;;;13.23;4.43;;;28.80;62.40;;;;;;5013837;28;20037;-66
2022/07/28 09:22:31;;;;;;;8.27;4.10;;;29.00;62.80;;;;;;5011816;28;20044;-66
2022/07/28 09:24:56;;;;;;;8.52;4.05;;;28.70;64.10;;;;;;5013550;28;20030;-66
2022/07/28 09:27:22;;;;;;;8.13;4.00;;;28.90;64.30;;;;;;5008761;28;20105;-66
2022/07/28 09:29:57;;;;;;;10.27;4.40;;;29.20;62.00;;;;;;5012961;28;20022;-66
2022/07/28 09:32:25;;;;;;;8.48;4.15;;;29.60;61.30;;;;;;5014909;28;20026;-66
2022/07/28 09:34:51;;;;;;;11.75;4.40;;;29.30;62.80;;;;;;5016923;28;20032;-66
2022/07/28 09:37:19;;;;;;;10.00;3.85;;;29.70;62.10;;;;;;5014019;28;20624;-66
2022/07/28 09:39:50;;;;;;;7.57;3.85;;;30.00;60.50;;;;;;5008421;28;20026;-66
2022/07/28 09:42:19;;;;;;;9.02;4.15;;;29.70;61.80;;;;;;5008996;28;20096;-66
2022/07/28 09:44:47;;;;;;;7.32;3.90;;;30.30;61.80;;;;;;5010473;28;20077;-66
2022/07/28 09:47:24;;;;;;;6.95;3.33;;;30.80;60.40;;;;;;5013655;28;20036;-67
2022/07/28 09:49:50;;;;;;;11.50;4.20;;;31.30;60.20;;;;;;5020184;28;20026;-66
2022/07/28 09:52:30;;;;;;;7.55;4.00;;;31.30;59.00;;;;;;5014532;28;20382;-66
2022/07/28 09:55:00;;;;;;;6.32;3.33;;;30.10;61.40;;;;;;5015964;28;20080;-66
2022/07/28 09:57:27;;;;;;;8.27;3.85;;;30.50;60.60;;;;;;5014554;28;20040;-65
2022/07/28 09:59:53;;;;;;;5.95;3.80;;;30.80;59.50;;;;;;5016602;28;20026;-64
2022/07/28 10:02:24;;;;;;;9.27;4.30;;;30.50;60.10;;;;;;5016053;28;20034;-65
2022/07/28 10:04:53;;;;;;;8.13;4.00;;;30.10;61.40;;;;;;5015598;28;20026;-65
2022/07/28 10:07:19;;;;;;;8.10;4.22;;;30.10;62.70;;;;;;5017462;28;20487;-67
2022/07/28 10:10:01;;;;;;;7.40;3.72;;;30.90;60.40;;;;;;5009760;28;20092;-66
2022/07/28 10:12:29;;;;;;;8.93;3.87;;;30.80;61.10;;;;;;4997457;28;20479;-65
2022/07/28 10:14:58;;;;;;;10.68;4.20;;;30.90;60.80;;;;;;5011501;28;20048;-65
2022/07/28 10:17:32;;;;;;;10.07;4.95;;;31.00;61.40;;;;;;5016856;28;20033;-66
2022/07/28 10:20:05;;;;;;;6.90;3.83;;;31.00;60.80;;;;;;5017143;28;20041;-65
2022/07/28 10:22:36;;;;;;;8.43;3.70;;;31.60;60.00;;;;;;5016214;28;20026;-64
2022/07/28 10:25:11;;;;;;;9.75;4.32;;;31.50;58.60;;;;;;5016140;28;20060;-65
2022/07/28 10:27:41;;;;;;;7.35;4.25;;;31.50;59.10;;;;;;5015685;28;20029;-65
2022/07/28 10:30:07;;;;;;;8.65;4.22;;;31.30;59.40;;;;;;5016312;28;20024;-65
2022/07/28 10:32:44;;;;;;;8.80;4.55;;;30.40;61.30;;;;;;5016848;28;20026;-65
2022/07/28 10:35:13;;;;;;;11.50;4.20;;;30.10;62.50;;;;;;5017100;28;20026;-65
2022/07/28 10:37:57;;;;;;;6.20;4.50;;;30.50;61.90;;;;;;5014215;28;20030;-66
2022/07/28 10:40:28;;;;;;;8.45;4.10;;;30.90;60.90;;;;;;5016133;28;20091;-65
2022/07/28 10:42:55;;;;;;;9.30;4.80;;;30.90;60.50;;;;;;5015210;28;20038;-66
2022/07/28 10:45:22;;;;;;;9.65;4.70;;;30.50;61.40;;;;;;5017447;28;20045;-66
2022/07/28 10:47:49;;;;;;;7.70;4.38;;;30.10;61.10;;;;;;5013881;28;20026;-66
2022/07/28 10:50:15;;;;;;;7.43;4.43;;;29.60;63.00;;;;;;5017996;28;20096;-66
2022/07/28 10:52:42;;;;;;;8.70;4.70;;;29.90;62.30;;;;;;5018236;28;20424;-66
2022/07/28 10:55:32;;;;;;;8.13;4.20;;;30.70;60.90;;;;;;5017420;28;20088;-66
2022/07/28 10:58:10;;;;;;;11.70;4.10;;;31.00;58.90;;;;;;5017419;28;20104;-66
2022/07/28 11:00:45;;;;;;;6.43;3.22;;;31.50;58.80;;;;;;5017386;28;20025;-66
2022/07/28 11:03:38;;;;;;;9.02;4.40;;;32.40;56.00;;;;;;5013720;28;20144;-66
2022/07/28 11:06:35;;;;;;;7.00;4.00;;;31.50;59.20;;;;;;5022923;28;20029;-67
2022/07/28 11:09:16;;;;;;;8.95;4.40;;;30.60;60.80;;;;;;5021056;28;20042;-65
2022/07/28 11:11:58;;;;;;;9.30;4.25;;;29.70;62.30;;;;;;5001895;28;20134;-65
2022/07/28 11:14:36;;;;;;;11.40;3.90;;;30.10;60.60;;;;;;5009221;28;20072;-64
2022/07/28 11:17:04;;;;;;;8.85;4.00;;;31.10;60.60;;;;;;5015788;28;20026;-66
2022/07/28 11:19:52;;;;;;;6.28;3.90;;;31.70;57.80;;;;;;5015587;28;20323;-64
2022/07/28 11:22:20;;;;;;;7.30;3.83;;;31.00;59.00;;;;;;5015008;28;20076;-67
2022/07/28 11:25:03;;;;;;;6.97;3.65;;;30.60;61.60;;;;;;5015237;28;20081;-65
2022/07/28 11:27:38;;;;;;;;;;;31.20;58.90;;;;;;5017370;28;20045;-65
2022/07/28 11:30:07;;;;;;;7.30;3.90;;;30.90;59.40;;;;;;5014762;28;19909;-66
2022/07/28 11:32:54;;;;;;;8.68;4.18;;;30.40;60.40;;;;;;5015765;28;20026;-65
2022/07/28 11:35:27;;;;;;;6.00;3.20;;;29.80;60.10;;;;;;5015542;28;20080;-66
2022/07/28 11:38:02;;;;;;;5.72;3.15;;;29.70;56.50;;;;;;5014938;28;20054;-66
2022/07/28 11:40:41;;;;;;;7.35;3.72;;;30.00;55.70;;;;;;5015042;28;20040;-66
2022/07/28 11:43:22;;;;;;;7.00;2.85;;;30.90;57.60;;;;;;5014037;28;20038;-66
2022/07/28 11:46:08;;;;;;;7.63;2.67;;;32.40;52.90;;;;;;5015558;28;20049;-66
2022/07/28 11:48:35;;;;;;;8.57;2.90;;;32.30;52.10;;;;;;5013760;28;20069;-67
2022/07/28 11:51:03;;;;;;;4.95;2.60;;;32.90;52.20;;;;;;5017376;28;20030;-67
2022/07/28 11:53:43;;;;;;;6.80;2.60;;;33.40;52.50;;;;;;5014303;28;20034;-67
2022/07/28 11:56:23;;;;;;;6.60;2.47;;;33.90;49.30;;;;;;5014933;28;20010;-67
2022/07/28 11:59:05;;;;;;;27.45;3.17;;;34.10;49.50;;;;;;5009087;28;20076;-65
2022/07/28 12:01:32;;;;;;;5.93;2.63;;;34.30;47.60;;;;;;5015420;28;20417;-66
2022/07/28 12:03:58;;;;;;;10.75;2.90;;;33.90;49.10;;;;;;5013761;28;20121;-66
2022/07/28 12:06:35;;;;;;;4.05;1.80;;;33.10;49.20;;;;;;5014706;28;20029;-66
2022/07/28 12:09:04;;;;;;;4.50;2.08;;;32.60;50.10;;;;;;5013218;28;20030;-66
2022/07/28 12:11:40;;;;;;;3.60;1.92;;;32.80;48.70;;;;;;5013438;28;20032;-66
2022/07/28 12:14:10;;;;;;;3.40;1.90;;;32.10;49.70;;;;;;5025159;28;20026;-66
2022/07/28 12:16:48;;;;;;;5.68;2.30;;;31.80;49.30;;;;;;5015544;28;20026;-66
2022/07/28 12:19:15;;;;;;;4.13;1.95;;;31.20;51.40;;;;;;5015519;28;20028;-65
2022/07/28 12:21:46;;;;;;;4.30;2.08;;;31.30;51.70;;;;;;5011579;28;20022;-67
2022/07/28 12:24:15;;;;;;;4.22;1.88;;;30.70;52.10;;;;;;5014126;28;20105;-66
2022/07/28 12:26:42;;;;;;;7.80;2.53;;;30.70;53.90;;;;;;5014019;28;20024;-66
2022/07/28 12:29:13;;;;;;;8.05;3.75;;;30.70;53.30;;;;;;5014564;28;20456;-65
2022/07/28 12:32:01;;;;;;;5.43;2.78;;;30.40;53.90;;;;;;5014903;28;20076;-66
2022/07/28 12:34:38;;;;;;;5.63;2.78;;;29.90;53.80;;;;;;5012546;28;20158;-65
2022/07/28 12:37:08;;;;;;;8.02;3.28;;;30.00;54.00;;;;;;5046485;28;20033;-66
2022/07/28 12:39:40;;;;;;;6.80;3.47;;;30.10;55.20;;;;;;5011427;28;20071;-66
2022/07/28 12:42:12;;;;;;;8.60;2.90;;;30.40;55.50;;;;;;5012998;28;20030;-65
2022/07/28 12:44:50;;;;;;;7.90;2.97;;;30.40;54.20;;;;;;5013727;28;20363;-66
2022/07/28 12:47:25;;;;;;;6.43;3.05;;;30.90;55.40;;;;;;5013693;28;20043;-65
2022/07/28 12:50:15;;;;;;;5.78;3.10;;;32.00;54.40;;;;;;5011221;28;20037;-66
2022/07/28 12:52:43;;;;;;;8.00;3.42;;;32.90;51.80;;;;;;5013043;28;20014;-65
2022/07/28 12:55:25;;;;;;;6.05;3.25;;;33.20;50.10;;;;;;5013460;28;20022;-66
2022/07/28 12:57:52;;;;;;;6.20;3.00;;;32.10;50.50;;;;;;5014114;28;20022;-65